Time;durP1;ratioP1;P1;durP2;ratioP2;P2;SDS_P1;SDS_P2;PMS_P1;PMS_P2;Temp;Humidity;BMP_temperature;BMP_pressure;BME280_temperature;BME280_humidity;BME280_pressure;Samples;Min_cycle;Max_cycle;Signal;HPM_P1;HPM_P2
2022/08/12 04:22:33;;;;;;;2.55;2.00;;;;;;;18.83;46.74;100319.63;5109395;27;20369;-68
2022/08/12 04:25:00;;;;;;;4.80;2.00;;;;;;;18.86;47.08;100322.69;5109350;28;20039;-68
2022/08/12 04:27:25;;;;;;;4.07;1.83;;;;;;;18.88;46.64;100323.28;5109241;28;20035;-67
2022/08/12 04:29:51;;;;;;;4.50;2.17;;;;;;;18.91;46.61;100320.16;5108878;28;20118;-67
2022/08/12 04:32:17;;;;;;;3.28;1.80;;;;;;;18.95;46.74;100317.81;5109349;28;20035;-68
2022/08/12 04:34:43;;;;;;;3.45;2.20;;;;;;;18.97;46.50;100310.31;5109423;28;20437;-68
2022/08/12 04:37:08;;;;;;;2.55;1.90;;;;;;;19.01;46.85;100318.78;5109556;28;20035;-68
2022/08/12 04:39:38;;;;;;;3.47;2.15;;;;;;;18.98;46.96;100328.16;5108893;28;20701;-68
2022/08/12 04:42:03;;;;;;;2.90;1.98;;;;;;;19.02;46.55;100321.25;5107743;28;20036;-68
2022/08/12 04:44:30;;;;;;;3.40;1.98;;;;;;;18.96;46.81;100327.56;5109122;28;20039;-67
2022/08/12 04:46:56;;;;;;;2.75;1.85;;;;;;;18.93;47.14;100322.63;5109243;28;20027;-68
2022/08/12 04:49:23;;;;;;;3.33;1.95;;;;;;;18.89;47.15;100329.50;5108792;28;20404;-68
2022/08/12 04:51:49;;;;;;;3.90;1.92;;;;;;;18.84;47.35;100332.88;5109119;28;20388;-67
2022/08/12 04:54:14;;;;;;;3.70;1.75;;;;;;;18.72;47.84;100328.47;5108705;28;20045;-68
2022/08/12 04:56:40;;;;;;;4.63;2.13;;;;;;;18.64;48.08;100330.38;5108575;28;20046;-67
2022/08/12 04:59:06;;;;;;;2.45;2.17;;;;;;;18.65;48.10;100334.75;5108341;28;20031;-67
2022/08/12 05:01:32;;;;;;;2.50;1.90;;;;;;;18.63;48.43;100333.28;5108583;28;20060;-67
2022/08/12 05:03:58;;;;;;;3.47;1.80;;;;;;;18.58;48.16;100341.22;5108655;28;20120;-67
2022/08/12 05:06:24;;;;;;;4.13;2.40;;;;;;;18.51;48.35;100335.91;5108539;28;20036;-41
2022/08/12 05:08:53;;;;;;;2.53;1.75;;;;;;;18.51;49.01;100335.91;5108453;28;20054;-43
2022/08/12 05:11:23;;;;;;;3.83;2.10;;;;;;;18.44;48.83;100335.13;5108341;28;20031;-45
2022/08/12 05:13:51;;;;;;;2.35;2.00;;;;;;;18.41;48.77;100335.59;5108475;28;20072;-45
2022/08/12 05:16:16;;;;;;;4.93;2.05;;;;;;;18.31;49.00;100351.44;5108312;28;20040;-42
2022/08/12 05:18:42;;;;;;;3.45;2.20;;;;;;;18.36;49.22;100351.63;5107973;28;20032;-42
2022/08/12 05:21:08;;;;;;;3.28;2.72;;;;;;;18.28;49.55;100347.34;5105349;28;20480;-42
2022/08/12 05:23:38;;;;;;;3.47;2.15;;;;;;;18.31;49.58;100352.28;5087950;28;20047;-47
2022/08/12 05:26:04;;;;;;;2.85;1.95;;;;;;;18.29;49.26;100358.94;5087762;28;20044;-44
2022/08/12 05:28:31;;;;;;;3.40;2.45;;;;;;;18.29;49.49;100362.47;5087844;28;20488;-42
2022/08/12 05:30:57;;;;;;;3.08;2.00;;;;;;;18.33;49.45;100368.25;5087652;28;20043;-44
2022/08/12 05:33:32;;;;;;;2.35;1.83;;;;;;;18.37;49.47;100361.34;5077335;28;20120;-43
2022/08/12 05:35:57;;;;;;;4.95;2.55;;;;;;;18.40;49.17;100372.53;5074414;28;20033;-44
2022/08/12 05:41:19;;;;;;;6.13;2.10;;;;;;;18.50;49.28;100377.41;5073740;28;20115;-43
2022/08/12 05:44:05;;;;;;;2.40;1.70;;;;;;;18.59;48.96;100388.75;5074263;28;20036;-44
2022/08/12 05:46:32;;;;;;;4.78;2.45;;;;;;;18.63;49.00;100387.25;5073977;28;20051;-45
2022/08/12 05:48:59;;;;;;;3.05;2.20;;;;;;;18.65;48.55;100394.09;5073815;28;20045;-46
2022/08/12 05:51:27;;;;;;;3.83;2.10;;;;;;;18.68;48.39;100392.84;5073612;28;20174;-44
2022/08/12 05:53:54;;;;;;;2.08;1.75;;;;;;;18.73;48.53;100389.47;5074141;28;20405;-43
2022/08/12 05:56:28;;;;;;;4.83;2.17;;;;;;;18.81;48.31;100389.19;5073726;28;20039;-46
2022/08/12 05:58:55;;;;;;;2.45;2.00;;;;;;;18.82;48.81;100397.03;5073956;28;20634;-45
2022/08/12 06:01:22;;;;;;;3.28;1.95;;;;;;;18.85;48.44;100396.63;5073429;28;20037;-45
2022/08/12 06:03:49;;;;;;;4.38;2.10;;;;;;;18.92;48.59;100402.75;5073755;28;20032;-43
2022/08/12 06:06:18;;;;;;;2.38;1.90;;;;;;;18.95;48.16;100407.69;5073590;28;20041;-43
2022/08/12 06:08:47;;;;;;;2.67;1.98;;;;;;;18.98;48.29;100398.34;5073588;28;20647;-46
2022/08/12 06:11:15;;;;;;;2.15;1.92;;;;;;;19.03;48.40;100411.97;5073416;28;20040;-43
2022/08/12 06:13:42;;;;;;;4.70;2.10;;;;;;;19.10;48.57;100403.81;5073505;28;20550;-45
2022/08/12 06:16:09;;;;;;;2.33;2.00;;;;;;;19.13;48.20;100409.59;5073384;28;20421;-43
2022/08/12 06:18:38;;;;;;;3.33;2.08;;;;;;;19.22;48.18;100404.69;5073452;28;20078;-46
2022/08/12 06:21:06;;;;;;;2.63;2.00;;;;;;;19.28;48.03;100401.09;5072965;28;20119;-43
2022/08/12 06:23:31;;;;;;;2.28;1.77;;;;;;;19.37;47.88;100404.34;5073416;28;20450;-46
2022/08/12 06:25:58;;;;;;;3.05;2.00;;;;;;;19.42;47.77;100401.75;5073394;28;20048;-46
2022/08/12 06:28:24;;;;;;;2.35;1.80;;;;;;;19.49;47.41;100410.59;5073253;28;20083;-46
2022/08/12 06:30:50;;;;;;;2.47;2.08;;;;;;;19.57;47.57;100409.47;5072799;28;20036;-44
2022/08/12 06:33:17;;;;;;;3.67;2.10;;;;;;;19.60;47.34;100403.63;5073287;28;20047;-43
2022/08/12 06:35:43;;;;;;;4.38;1.98;;;;;;;19.69;47.60;100399.56;5073120;28;20135;-47
2022/08/12 06:38:17;;;;;;;2.80;2.20;;;;;;;19.74;47.40;100405.91;5073197;28;20067;-47
2022/08/12 06:43:28;;;;;;;3.17;1.92;;;;;;;19.86;47.12;100400.56;5072828;28;20055;-47
2022/08/12 06:45:56;;;;;;;3.13;2.03;;;;;;;19.95;46.84;100401.91;5072330;28;20048;-46
2022/08/12 06:48:27;;;;;;;2.22;1.75;;;;;;;19.99;46.75;100396.84;5072842;28;20485;-49
2022/08/12 06:50:56;;;;;;;3.80;2.25;;;;;;;20.06;46.30;100394.84;5072725;28;20033;-48
2022/08/12 06:53:23;;;;;;;4.82;2.20;;;;;;;20.09;46.30;100396.28;5072788;28;20059;-45
2022/08/12 06:55:49;;;;;;;3.08;2.00;;;;;;;20.16;46.57;100397.00;5072697;28;20527;-43
2022/08/12 06:58:16;;;;;;;2.58;1.88;;;;;;;20.23;46.64;100397.72;5072754;28;20028;-43
2022/08/12 07:00:42;;;;;;;3.88;2.33;;;;;;;20.31;46.24;100403.59;5072214;28;20037;-63
2022/08/12 07:03:09;;;;;;;4.00;2.00;;;;;;;20.41;46.02;100399.47;5072601;28;20066;-62
2022/08/12 07:05:34;;;;;;;3.00;1.90;;;;;;;20.49;45.89;100394.59;5071333;28;20474;-63
2022/08/12 07:08:00;;;;;;;3.15;1.83;;;;;;;20.55;46.90;100392.84;5072437;28;20035;-61
2022/08/12 07:10:26;;;;;;;3.05;1.92;;;;;;;20.66;45.68;100393.88;5071927;28;20036;-61
2022/08/12 07:12:55;;;;;;;3.15;2.10;;;;;;;20.71;45.96;100391.28;5072337;28;20052;-63
2022/08/12 07:15:23;;;;;;;2.40;2.03;;;;;;;20.83;45.69;100384.00;5072244;28;20508;-62
2022/08/12 07:17:59;;;;;;;2.83;2.20;;;;;;;20.89;45.65;100387.63;5072367;28;20036;-62
2022/08/12 07:20:30;;;;;;;6.35;2.10;;;;;;;20.98;46.26;100394.31;5071922;28;20424;-62
2022/08/12 07:23:00;;;;;;;5.57;2.10;;;;;;;21.14;45.52;100382.75;5072127;28;20055;-62
2022/08/12 07:25:31;;;;;;;3.83;2.08;;;;;;;21.23;44.78;100381.31;5072064;28;20497;-61
2022/08/12 07:28:02;;;;;;;3.22;1.90;;;;;;;21.33;44.87;100392.41;5072152;28;20040;-58
2022/08/12 07:30:33;;;;;;;5.93;1.90;;;;;;;21.44;44.98;100395.28;5071870;28;20032;-62
2022/08/12 07:33:02;;;;;;;4.38;2.15;;;;;;;21.55;44.08;100380.88;5072007;28;20040;-60
2022/08/12 07:35:28;;;;;;;3.72;2.05;;;;;;;21.71;44.40;100384.69;5071765;28;20135;-61
2022/08/12 07:37:56;;;;;;;3.67;2.15;;;;;;;21.79;43.58;100385.13;5071940;28;20037;-62
2022/08/12 07:40:23;;;;;;;3.58;1.88;;;;;;;21.87;43.48;100384.75;5070225;28;20047;-61
2022/08/12 07:42:48;;;;;;;3.00;2.10;;;;;;;22.17;42.11;100387.19;5072015;28;20111;-60
2022/08/12 07:45:15;;;;;;;4.00;2.00;;;;;;;22.30;41.87;100379.75;5071933;28;20307;-62
2022/08/12 07:47:44;;;;;;;3.28;1.73;;;;;;;22.37;42.75;100378.56;5071982;28;20043;-62
2022/08/12 07:50:11;;;;;;;3.50;1.88;;;;;;;22.48;42.09;100383.03;5071520;28;20049;-61
2022/08/12 07:52:40;;;;;;;4.10;1.83;;;;;;;22.64;41.71;100377.88;5072149;28;20392;-61
2022/08/12 07:55:07;;;;;;;3.25;1.83;;;;;;;22.80;41.18;100374.28;5071447;28;20054;-61
2022/08/12 07:57:33;;;;;;;2.47;1.92;;;;;;;22.82;41.41;100385.72;5072026;28;20464;-62
2022/08/12 08:00:04;;;;;;;3.60;2.20;;;;;;;22.96;40.91;100375.34;5071435;28;20036;-63
2022/08/12 08:02:34;;;;;;;4.03;1.90;;;;;;;23.03;40.97;100378.69;5071728;28;20036;-55
2022/08/12 08:05:00;;;;;;;5.32;1.95;;;;;;;23.17;40.41;100382.69;5071615;28;20382;-58
2022/08/12 08:07:28;;;;;;;2.75;2.13;;;;;;;23.33;39.97;100378.22;5071475;28;20064;-57
2022/08/12 08:09:56;;;;;;;2.67;1.75;;;;;;;23.41;38.88;100385.97;5071447;28;20477;-62
2022/08/12 08:15:09;;;;;;;2.88;1.65;;;;;;;23.64;38.67;100379.44;5071540;28;20142;-63
2022/08/12 08:17:36;;;;;;;;;;;;;;;23.82;38.18;100386.41;5072309;28;20033;-62
2022/08/12 08:20:01;;;;;;;4.47;1.60;;;;;;;23.90;37.37;100376.97;5071329;28;19912;-53
2022/08/12 08:22:27;;;;;;;3.17;1.50;;;;;;;24.09;36.95;100381.75;5071284;28;20567;-56
2022/08/12 08:24:57;;;;;;;2.30;1.70;;;;;;;24.15;36.79;100384.53;5071421;28;20036;-60
2022/08/12 08:27:25;;;;;;;5.60;1.88;;;;;;;24.34;36.55;100381.19;5071283;28;20041;-56
2022/08/12 08:29:51;;;;;;;2.45;1.70;;;;;;;24.43;36.11;100376.06;5071106;28;20033;-62
2022/08/12 08:32:16;;;;;;;3.63;1.70;;;;;;;24.51;36.85;100383.72;5071330;28;20476;-61
2022/08/12 08:34:44;;;;;;;4.00;1.95;;;;;;;24.60;35.98;100379.47;5071494;28;20478;-55
2022/08/12 08:37:14;;;;;;;3.38;1.88;;;;;;;24.70;36.42;100377.88;5071266;28;20489;-56
2022/08/12 08:39:40;;;;;;;3.28;1.70;;;;;;;24.85;36.19;100377.97;5071033;28;20119;-61
2022/08/12 08:44:50;;;;;;;4.70;1.80;;;;;;;25.23;35.25;100365.06;5071342;28;20045;-56
2022/08/12 08:47:15;;;;;;;2.67;1.58;;;;;;;25.32;34.74;100366.22;5069946;28;20048;-57
2022/08/12 08:49:41;;;;;;;3.05;1.67;;;;;;;25.38;34.63;100365.13;5070873;28;20051;-58
2022/08/12 08:52:08;;;;;;;5.88;1.95;;;;;;;25.51;35.05;100367.34;5071255;28;20044;-55
2022/08/12 08:54:36;;;;;;;1.73;1.48;;;;;;;25.61;34.41;100363.81;5071192;28;20029;-62
2022/08/12 08:57:03;;;;;;;6.00;1.80;;;;;;;25.73;34.25;100360.88;5071309;28;20028;-62
2022/08/12 08:59:29;;;;;;;3.67;1.55;;;;;;;25.86;33.98;100371.25;5070843;28;20117;-63
2022/08/12 09:01:54;;;;;;;5.70;1.67;;;;;;;25.94;32.94;100365.25;5071050;28;20554;-63
2022/08/12 09:04:20;;;;;;;2.50;1.73;;;;;;;26.04;33.69;100365.25;5071025;28;20553;-63
2022/08/12 09:06:48;;;;;;;1.90;1.60;;;;;;;26.22;33.14;100367.44;5071011;28;20496;-61
2022/08/12 09:09:16;;;;;;;2.17;1.90;;;;;;;26.38;32.82;100356.50;5074115;28;20044;-59
2022/08/12 09:14:26;;;;;;;4.90;1.60;;;;;;;26.73;31.37;100370.13;5074730;28;20029;-57
2022/08/12 09:16:52;;;;;;;3.55;1.30;;;;;;;26.75;31.68;100357.00;5074569;28;20488;-56
2022/08/12 09:19:17;;;;;;;3.17;2.05;;;;;;;26.90;30.61;100361.59;5074282;28;20040;-60
2022/08/12 09:21:46;;;;;;;2.03;1.60;;;;;;;27.12;30.44;100361.25;5074310;28;20527;-58
2022/08/12 09:24:17;;;;;;;2.17;1.50;;;;;;;27.15;30.35;100349.78;5074534;28;20433;-55
2022/08/12 09:26:45;;;;;;;2.55;1.50;;;;;;;27.30;30.11;100344.22;5074442;28;20154;-56
2022/08/12 09:29:11;;;;;;;2.17;1.40;;;;;;;27.52;30.17;100348.50;5074151;28;20043;-56
2022/08/12 09:31:37;;;;;;;2.95;1.42;;;;;;;27.59;29.57;100340.78;5074296;28;20037;-58
2022/08/12 09:34:03;;;;;;;3.22;1.40;;;;;;;27.73;28.49;100341.81;5074340;28;20040;-58
2022/08/12 09:36:30;;;;;;;4.93;1.50;;;;;;;27.79;28.62;100340.66;5074257;28;20127;-57
2022/08/12 09:38:56;;;;;;;2.20;1.50;;;;;;;28.09;28.38;100342.31;5074247;28;20508;-58
2022/08/12 09:41:22;;;;;;;2.13;1.15;;;;;;;28.34;27.62;100344.03;5073939;28;20045;-57
2022/08/12 09:46:32;;;;;;;2.75;1.50;;;;;;;28.45;27.02;100349.44;5074047;28;20028;-56
2022/08/12 09:48:58;;;;;;;1.92;1.48;;;;;;;28.75;26.33;100338.13;5073859;28;20028;-58
2022/08/12 09:51:32;;;;;;;1.87;1.40;;;;;;;28.58;27.17;100335.88;5073901;28;20036;-63
2022/08/12 09:53:57;;;;;;;2.97;1.58;;;;;;;28.86;26.36;100319.63;5073966;28;20278;-63
2022/08/12 09:56:23;;;;;;;2.15;1.35;;;;;;;28.96;26.87;100310.53;5073921;28;20059;-63
2022/08/12 09:58:49;;;;;;;1.80;1.42;;;;;;;29.27;27.05;100317.19;5073867;28;20076;-63
2022/08/12 10:01:17;;;;;;;3.27;1.40;;;;;;;29.50;25.96;100314.69;5073647;28;20040;-64
2022/08/12 10:03:42;;;;;;;3.92;1.60;;;;;;;29.69;25.62;100296.31;5074028;28;20370;-63
2022/08/12 10:06:09;;;;;;;2.83;1.65;;;;;;;29.93;25.51;100302.50;5073704;28;20043;-63
2022/08/12 10:08:36;;;;;;;2.85;1.70;;;;;;;30.12;25.33;100302.44;5073869;28;20059;-63
2022/08/12 10:13:52;;;;;;;1.30;1.20;;;;;;;30.52;25.07;100287.16;5073576;28;20485;-63
2022/08/12 10:16:21;;;;;;;4.38;1.63;;;;;;;30.74;24.53;100291.16;5073623;28;20478;-64
2022/08/12 10:18:52;;;;;;;1.58;1.30;;;;;;;31.42;24.91;100287.44;5072076;28;20485;-62
2022/08/12 10:21:23;;;;;;;2.20;1.40;;;;;;;31.47;23.95;100289.28;5073270;28;20048;-64
2022/08/12 10:23:50;;;;;;;1.92;1.40;;;;;;;31.24;24.43;100288.44;5073557;28;20044;-62
2022/08/12 10:31:50;;;;;;;4.68;1.52;;;;;;;31.69;23.67;100280.19;5073285;28;20075;-63
2022/08/12 10:34:16;;;;;;;2.88;1.73;;;;;;;31.97;23.34;100272.66;5073303;28;20508;-63
2022/08/12 10:36:43;;;;;;;5.20;1.70;;;;;;;32.37;22.87;100273.53;5073424;28;20123;-63
2022/08/12 10:39:12;;;;;;;2.10;1.70;;;;;;;32.47;23.18;100275.97;5072868;28;20131;-63
2022/08/12 10:44:22;;;;;;;2.38;1.45;;;;;;;32.81;22.35;100266.19;5073079;28;20125;-63
2022/08/12 10:46:51;;;;;;;4.53;1.90;;;;;;;32.89;22.80;100265.44;5072868;28;20025;-62
2022/08/12 10:49:26;;;;;;;3.00;1.70;;;;;;;33.10;22.32;100263.66;5072691;28;20249;-63
2022/08/12 10:51:53;;;;;;;2.40;1.70;;;;;;;33.21;22.59;100256.69;5073047;28;20119;-64
2022/08/12 10:54:24;;;;;;;3.55;1.63;;;;;;;33.19;22.27;100253.47;5072836;28;20021;-62
2022/08/12 10:56:50;;;;;;;1.90;1.40;;;;;;;33.58;21.75;100248.91;5072665;28;20044;-61
2022/08/12 10:59:16;;;;;;;3.47;1.53;;;;;;;33.92;21.00;100250.81;5072527;28;20067;-61
2022/08/12 11:01:45;;;;;;;2.70;1.40;;;;;;;34.18;20.83;100249.94;5072550;28;20078;-61
2022/08/12 11:04:12;;;;;;;3.00;1.60;;;;;;;34.39;20.44;100248.03;5072541;28;20150;-61
2022/08/12 11:06:46;;;;;;;1.95;1.75;;;;;;;34.00;21.22;100238.94;5072488;28;20047;-61
2022/08/12 11:09:23;;;;;;;1.90;1.58;;;;;;;34.65;20.65;100247.13;5072277;28;20040;-61
2022/08/12 11:11:49;;;;;;;;;;;;;;;34.91;21.07;100247.75;5072894;28;20037;-62
2022/08/12 11:14:27;;;;;;;2.15;1.55;;;;;;;34.93;19.65;100248.25;5072437;28;19917;-61
2022/08/12 11:17:01;;;;;;;3.70;1.35;;;;;;;34.92;19.65;100240.28;5072584;28;20048;-61
2022/08/12 11:19:28;;;;;;;2.63;1.40;;;;;;;34.98;19.04;100230.66;5072144;28;20114;-62
2022/08/12 11:21:54;;;;;;;;;;;;;;;35.18;19.44;100229.81;5072699;28;20029;-62
2022/08/12 11:24:23;;;;;;;3.00;1.55;;;;;;;35.02;19.19;100224.09;5072246;28;19912;-64
2022/08/12 11:26:53;;;;;;;2.08;1.45;;;;;;;35.04;19.92;100235.63;5072614;28;20043;-62
2022/08/12 11:29:20;;;;;;;2.80;1.42;;;;;;;34.43;20.24;100223.31;5072072;28;20412;-64
2022/08/12 11:31:46;;;;;;;1.75;1.38;;;;;;;34.93;19.83;100233.59;5071614;28;20109;-63
2022/08/12 11:34:12;;;;;;;1.83;1.20;;;;;;;35.29;19.43;100214.44;5072474;28;20112;-64
2022/08/12 11:36:39;;;;;;;3.65;1.40;;;;;;;35.61;19.18;100218.38;5072054;28;20501;-62
2022/08/12 11:39:04;;;;;;;;;;;;;;;35.84;19.26;100223.50;5072026;28;20032;-61
2022/08/12 11:41:31;;;;;;;2.03;1.45;;;;;;;35.62;19.24;100216.41;5071967;28;19920;-61
2022/08/12 11:43:57;;;;;;;3.38;1.27;;;;;;;34.60;20.65;100203.88;5071898;28;20033;-64
2022/08/12 11:46:22;;;;;;;2.07;1.40;;;;;;;35.51;19.97;100202.19;5071996;28;20044;-64
2022/08/12 11:48:48;;;;;;;2.83;1.30;;;;;;;35.46;19.70;100207.13;5071727;28;20075;-63
2022/08/12 11:51:13;;;;;;;1.73;1.43;;;;;;;35.91;18.81;100198.84;5071651;28;20143;-64
2022/08/12 11:53:39;;;;;;;4.37;1.87;;;;;;;36.01;18.86;100194.81;5071760;28;20083;-62
2022/08/12 11:56:06;;;;;;;1.80;1.43;;;;;;;35.66;19.67;100186.88;5071678;28;20044;-62
2022/08/12 11:58:32;;;;;;;2.45;1.50;;;;;;;36.53;18.25;100196.91;5071676;28;20056;-63
2022/08/12 12:00:58;;;;;;;1.95;1.50;;;;;;;37.14;18.37;100205.91;5071413;28;20035;-62
2022/08/12 12:03:23;;;;;;;1.90;1.30;;;;;;;37.20;17.51;100195.34;5071686;28;20400;-62
2022/08/12 12:05:49;;;;;;;4.47;1.77;;;;;;;36.54;18.18;100196.56;5071505;28;20036;-63
2022/08/12 12:08:22;;;;;;;5.30;1.50;;;;;;;36.97;17.95;100200.63;5071650;28;20079;-62
2022/08/12 12:10:49;;;;;;;1.38;1.20;;;;;;;35.99;18.62;100189.59;5071262;28;20397;-62
2022/08/12 12:13:14;;;;;;;2.72;1.33;;;;;;;35.74;18.73;100179.63;5071652;28;20035;-63
2022/08/12 12:15:40;;;;;;;1.80;1.50;;;;;;;36.46;18.65;100191.16;5071525;28;20033;-62
2022/08/12 12:18:05;;;;;;;3.63;1.50;;;;;;;36.33;17.88;100180.03;5071524;28;20036;-64
2022/08/12 12:20:32;;;;;;;4.30;1.40;;;;;;;36.93;17.92;100174.75;5071158;28;20505;-63
2022/08/12 12:22:58;;;;;;;2.00;1.38;;;;;;;36.54;17.57;100173.56;5071537;28;20047;-64
2022/08/12 12:25:23;;;;;;;2.30;1.40;;;;;;;35.67;18.24;100166.34;5071473;28;20044;-62
2022/08/12 12:27:51;;;;;;;3.23;1.37;;;;;;;35.96;18.63;100168.13;5071579;28;20032;-62
2022/08/12 12:30:17;;;;;;;2.90;1.30;;;;;;;36.52;18.12;100173.13;5071063;28;20166;-62
2022/08/12 12:32:43;;;;;;;1.20;1.10;;;;;;;35.69;17.90;100175.13;5071294;28;20186;-63
2022/08/12 12:35:09;;;;;;;2.00;1.40;;;;;;;35.63;18.97;100167.38;5071333;28;20560;-62
2022/08/12 12:37:58;;;;;;;1.80;1.40;;;;;;;35.89;18.24;100163.13;5071384;28;20071;-63
2022/08/12 12:44:07;;;;;;;3.15;1.45;;;;;;;36.32;17.13;100153.47;5075143;28;20091;-62
2022/08/12 12:46:32;;;;;;;2.70;1.37;;;;;;;36.91;17.56;100149.34;5075244;28;20049;-62
2022/08/12 12:48:58;;;;;;;2.10;1.30;;;;;;;35.69;17.96;100143.84;5073752;28;20036;-62
2022/08/12 12:51:23;;;;;;;1.67;1.27;;;;;;;36.42;17.95;100160.53;5074955;28;20114;-62
2022/08/12 12:53:49;;;;;;;1.37;1.27;;;;;;;36.32;17.57;100139.59;5075193;28;20131;-59
2022/08/12 12:56:16;;;;;;;1.80;1.50;;;;;;;35.99;17.34;100130.59;5075077;28;20151;-60
2022/08/12 12:58:42;;;;;;;1.70;1.33;;;;;;;36.29;17.62;100143.06;5075119;28;20040;-62
2022/08/12 13:01:08;;;;;;;5.00;1.52;;;;;;;36.25;17.57;100141.31;5074776;28;20028;-61
2022/08/12 13:03:34;;;;;;;4.22;1.27;;;;;;;36.40;17.83;100141.47;5075048;28;20041;-60
2022/08/12 13:06:02;;;;;;;1.87;1.40;;;;;;;36.34;17.58;100148.38;5074855;28;20080;-61
2022/08/12 13:08:31;;;;;;;2.38;1.20;;;;;;;36.27;17.41;100148.16;5074775;28;20343;-61
2022/08/12 13:10:59;;;;;;;2.65;1.40;;;;;;;36.43;17.42;100142.72;5074433;28;20044;-59
2022/08/12 13:13:26;;;;;;;1.95;1.60;;;;;;;37.03;16.60;100138.16;5073715;28;20055;-62
2022/08/12 13:15:52;;;;;;;3.47;1.50;;;;;;;36.68;17.55;100135.97;5074553;28;20547;-62
2022/08/12 13:18:18;;;;;;;2.60;1.30;;;;;;;36.45;17.38;100139.59;5074768;28;20028;-62
2022/08/12 13:20:47;;;;;;;4.37;1.80;;;;;;;35.88;17.41;100144.09;5074312;28;20402;-62
2022/08/12 13:23:18;;;;;;;3.35;1.27;;;;;;;35.93;17.27;100148.59;5074601;28;20029;-61
2022/08/12 13:25:48;;;;;;;6.30;1.27;;;;;;;36.08;17.50;100145.16;5074792;28;20040;-62
2022/08/12 13:28:27;;;;;;;2.58;1.30;;;;;;;36.67;17.61;100141.88;5074591;28;20036;-57
2022/08/12 13:30:56;;;;;;;3.08;1.25;;;;;;;36.36;17.75;100146.06;5074165;28;20489;-55
2022/08/12 13:33:32;;;;;;;1.83;1.30;;;;;;;36.71;17.18;100139.19;5074380;28;20532;-61
2022/08/12 13:35:59;;;;;;;;;;;;;;;37.09;16.49;100136.75;5074879;28;20153;-57
2022/08/12 13:38:37;;;;;;;1.58;1.20;;;;;;;35.89;17.27;100140.97;5074327;28;19962;-60
2022/08/12 13:41:03;;;;;;;2.28;1.20;;;;;;;35.68;17.79;100137.50;5073980;28;20032;-59
2022/08/12 13:43:29;;;;;;;3.47;1.40;;;;;;;35.29;17.60;100133.34;5074194;28;20504;-57
2022/08/12 13:45:54;;;;;;;3.90;1.30;;;;;;;34.95;18.45;100121.47;5074073;28;20044;-62
2022/08/12 13:48:20;;;;;;;2.10;1.37;;;;;;;34.41;19.55;100123.28;5074222;28;20045;-60
2022/08/12 13:50:45;;;;;;;4.40;1.73;;;;;;;33.68;19.84;100117.97;5072640;28;20169;-61
2022/08/12 13:53:13;;;;;;;1.97;1.20;;;;;;;33.65;20.06;100130.50;5073869;28;20060;-59
2022/08/12 13:55:44;;;;;;;1.50;1.30;;;;;;;33.68;20.57;100127.06;5074017;28;20115;-58
2022/08/12 13:58:16;;;;;;;4.72;1.88;;;;;;;33.34;19.99;100113.34;5073870;28;20043;-57
2022/08/12 14:00:51;;;;;;;2.10;1.48;;;;;;;32.93;20.82;100121.03;5073636;28;20097;-57
2022/08/12 14:03:18;;;;;;;3.28;1.45;;;;;;;32.31;21.31;100124.00;5073861;28;20037;-63
2022/08/12 14:05:43;;;;;;;5.10;1.35;;;;;;;31.99;20.90;100124.41;5073860;28;20082;-63
2022/08/12 14:08:10;;;;;;;1.33;1.23;;;;;;;32.12;20.99;100113.28;5073884;28;20036;-62
2022/08/12 14:10:40;;;;;;;;;;;;;;;31.80;21.51;100127.41;5073888;28;20032;-62
2022/08/12 14:13:13;;;;;;;3.50;1.25;;;;;;;31.85;20.65;100116.28;5073690;28;19923;-62
2022/08/12 14:15:59;;;;;;;3.33;1.40;;;;;;;31.57;21.66;100115.63;5073392;28;20037;-63
2022/08/12 14:18:25;;;;;;;3.10;1.30;;;;;;;31.71;21.31;100112.78;5073754;28;20036;-63
2022/08/12 14:21:04;;;;;;;1.88;1.15;;;;;;;31.66;21.69;100110.16;5073206;28;20032;-62
2022/08/12 14:23:32;;;;;;;1.85;1.38;;;;;;;31.51;21.78;100103.16;5073475;28;20446;-63
2022/08/12 14:25:59;;;;;;;3.50;1.20;;;;;;;31.34;21.76;100098.34;5072218;28;20358;-63
2022/08/12 14:28:26;;;;;;;;;;;;;;;31.12;21.76;100092.84;5074134;28;20236;-62
2022/08/12 14:30:57;;;;;;;1.88;1.33;;;;;;;31.38;21.55;100102.09;5072963;28;19920;-63
2022/08/12 14:33:25;;;;;;;3.38;1.05;;;;;;;31.41;21.33;100093.19;5073293;28;20409;-63
2022/08/12 14:35:51;;;;;;;1.25;1.15;;;;;;;31.11;21.80;100083.78;5073127;28;20047;-62
2022/08/12 14:38:22;;;;;;;5.28;1.30;;;;;;;31.13;22.57;100094.47;5073183;28;20119;-63
2022/08/12 14:40:51;;;;;;;1.60;1.10;;;;;;;30.96;21.61;100100.66;5073136;28;20370;-62
2022/08/12 14:43:18;;;;;;;1.60;1.15;;;;;;;30.96;22.11;100092.41;5073037;28;20043;-62
2022/08/12 14:45:44;;;;;;;5.00;1.35;;;;;;;30.94;21.88;100092.72;5072925;28;20382;-63
2022/08/12 14:48:11;;;;;;;2.33;1.10;;;;;;;30.92;21.85;100091.44;5073238;28;20033;-63
2022/08/12 14:50:36;;;;;;;3.40;1.33;;;;;;;31.03;22.11;100090.03;5072571;28;20043;-63
2022/08/12 14:53:02;;;;;;;4.05;1.38;;;;;;;31.03;21.80;100087.28;5073160;28;20032;-63
2022/08/12 14:55:32;;;;;;;3.05;1.27;;;;;;;31.00;21.83;100091.47;5072774;28;20474;-63
2022/08/12 14:57:59;;;;;;;3.88;1.23;;;;;;;31.10;22.40;100081.34;5072756;28;20111;-63
2022/08/12 15:03:13;;;;;;;2.20;1.40;;;;;;;31.02;22.17;100080.16;5072606;28;20043;-63
2022/08/12 15:05:40;;;;;;;2.47;1.88;;;;;;;31.15;22.58;100090.28;5071574;28;20094;-62
2022/08/12 15:08:10;;;;;;;5.38;1.40;;;;;;;30.90;21.85;100086.22;5072611;28;20039;-62
2022/08/12 15:10:45;;;;;;;3.38;1.15;;;;;;;30.94;22.36;100084.47;5071009;28;20037;-63
2022/08/12 15:13:11;;;;;;;4.25;1.35;;;;;;;30.70;22.18;100083.97;5072547;28;20032;-63
2022/08/12 15:15:40;;;;;;;2.10;1.40;;;;;;;30.63;22.43;100084.38;5072372;28;20031;-63
2022/08/12 15:18:08;;;;;;;2.35;1.20;;;;;;;30.56;22.53;100083.16;5072410;28;20361;-62
2022/08/12 15:20:34;;;;;;;3.25;1.20;;;;;;;30.50;22.50;100079.72;5071978;28;20075;-63
2022/08/12 15:23:01;;;;;;;2.90;1.40;;;;;;;30.54;22.49;100081.56;5071161;28;20499;-62
2022/08/12 15:25:26;;;;;;;4.43;1.20;;;;;;;30.38;22.89;100079.44;5072120;28;20106;-63
2022/08/12 15:27:52;;;;;;;1.52;1.20;;;;;;;30.36;22.60;100070.72;5072251;28;20758;-62
2022/08/12 15:30:23;;;;;;;1.30;1.20;;;;;;;30.38;22.38;100077.50;5071790;28;20071;-63
2022/08/12 15:32:52;;;;;;;1.45;1.35;;;;;;;30.38;22.37;100073.94;5072152;28;20454;-62
2022/08/12 15:35:18;;;;;;;5.95;1.50;;;;;;;30.31;22.61;100074.38;5072170;28;20048;-63
2022/08/12 15:37:44;;;;;;;2.67;1.60;;;;;;;30.39;22.81;100067.38;5072309;28;20567;-62
2022/08/12 15:40:11;;;;;;;1.50;1.20;;;;;;;30.30;22.80;100071.94;5071870;28;20125;-62
2022/08/12 15:42:37;;;;;;;1.70;1.05;;;;;;;30.22;22.76;100068.81;5072066;28;20032;-62
2022/08/12 15:45:04;;;;;;;3.10;1.30;;;;;;;30.26;22.49;100069.81;5071921;28;20604;-62
2022/08/12 15:47:29;;;;;;;1.85;1.30;;;;;;;30.25;22.54;100076.41;5072184;28;20051;-63
2022/08/12 15:49:56;;;;;;;4.15;1.40;;;;;;;30.23;22.73;100073.19;5071841;28;20044;-63
2022/08/12 15:52:27;;;;;;;1.20;1.00;;;;;;;30.05;22.75;100073.28;5071994;28;20120;-63
2022/08/12 15:54:53;;;;;;;2.08;0.93;;;;;;;30.08;23.13;100075.41;5071956;28;20032;-64
2022/08/12 15:57:18;;;;;;;1.63;1.20;;;;;;;30.06;23.17;100066.66;5071728;28;20051;-64
2022/08/12 15:59:45;;;;;;;4.05;1.13;;;;;;;29.96;23.15;100059.47;5071627;28;20400;-63
2022/08/12 16:02:13;;;;;;;2.72;1.17;;;;;;;30.00;23.13;100065.97;5071956;28;20032;-64
2022/08/12 16:04:39;;;;;;;1.42;1.10;;;;;;;30.05;23.04;100068.59;5071814;28;20093;-63
2022/08/12 16:07:05;;;;;;;2.70;1.40;;;;;;;30.07;23.54;100071.06;5071654;28;20054;-63
2022/08/12 16:09:30;;;;;;;1.95;1.10;;;;;;;30.04;23.31;100071.66;5071455;28;20123;-58
2022/08/12 16:11:57;;;;;;;1.75;1.27;;;;;;;30.04;22.89;100077.16;5071584;28;20043;-56
2022/08/12 16:14:23;;;;;;;;;;;;;;;29.98;22.56;100066.25;5072083;28;20502;-58
2022/08/12 16:16:49;;;;;;;1.53;1.23;;;;;;;29.93;22.24;100073.78;5071513;28;19923;-57
2022/08/12 16:19:18;;;;;;;2.27;1.13;;;;;;;29.86;22.38;100065.97;5071286;28;20051;-60
2022/08/12 16:21:43;;;;;;;3.08;1.15;;;;;;;29.85;22.62;100067.09;5071544;28;20032;-59
2022/08/12 16:24:09;;;;;;;2.65;1.17;;;;;;;29.70;22.56;100062.72;5071517;28;20037;-55